Terminal Aerodrome Forecast
Issued by NWS

Home | Current Version | Previous Version | Text Only | Print | Product List | Glossary On
Versions: 1 2 3 4 5 6 7 8 9 10 11 12 13 14 15 16 17 18 19 20 21 22 23 24 25 26 27 28 29 30 31 32 33
886
FTUS46 KPQR 211737
TAFONP
TAF
KONP 211737Z 2118/2218 13008G15KT P6SM -RA SCT035 BKN060 OVC100
     FM212000 19018G30KT 4SM -RA SCT015 BKN025 OVC035
     FM220200 19022G30KT P6SM -SHRA SCT025 OVC035
     FM220700 19015G25KT 4SM BR VCSH OVC015=

USA.gov is the U.S. government's official web portal to all federal, state and local government web resources and services.